PWSweather.com
Personal Weather Stations
Station Observations
ISYDDANM23
Felsted, AabenraaDK 6200

FelstedAabenraaDK 6200

Lat: 54.977066, Lon: 9.507192

Elevation: 135

Station Type: Davis Vantage Pro 2 Plus 24H

http://www.valkaer.dk

High Low Average
Temperature 55.7°F13.2°C 39.9°F4.4°C 48.0°F8.9°C
Dew Point 46.2°F7.9°C 36.5°F2.5°C 40.6°F4.8°C
Winds 9.2 mph 14.8 kmh Calm Calm 4.0 mph ESE6.4 kmh ESE
Wind Gusts 15.0 mph24.1 kmh -- 7.0 mph11.3 kmh
Humidity 90% 56% 77%
Pressure 29.90 in1012.5 mb 29.39 in995.3 mb -
Precipitation 0.18 in4.6 mm - -
Hour Temp Dew Point Humidity Winds Wind Gusts Pressure Precip Precip Rate Daily Precip Total
12:00 AM 40.6°F4.8°C 36.8°F2.7°C 86% Calm Calm -- 29.90 in1012.5 mb - 0.02 in0.5 mm 0.02 in0.5 mm
12:10 AM 40.7°F4.8°C 36.8°F2.7°C 86% Calm Calm -- 29.90 in1012.5 mb - 0.02 in0.5 mm 0.02 in0.5 mm
12:15 AM 40.7°F4.8°C 37.1°F2.8°C 87% Calm Calm 2.3 mph3.7 kmh 29.90 in1012.5 mb - 0.02 in0.5 mm 0.02 in0.5 mm
12:20 AM 40.4°F4.7°C 36.8°F2.7°C 87% 1.2 mph S1.9 kmh S 2.3 mph3.7 kmh 29.90 in1012.5 mb - 0.02 in0.5 mm 0.02 in0.5 mm
12:25 AM 40.4°F4.7°C 36.8°F2.7°C 87% Calm Calm 1.2 mph1.9 kmh 29.90 in1012.5 mb - 0.02 in0.5 mm 0.02 in0.5 mm
12:30 AM 40.3°F4.6°C 36.7°F2.6°C 87% 1.2 mph S1.9 kmh S 1.2 mph1.9 kmh 29.89 in1012.2 mb - 0.02 in0.5 mm 0.02 in0.5 mm
12:35 AM 40.5°F4.7°C 36.9°F2.7°C 87% Calm Calm 2.3 mph3.7 kmh 29.89 in1012.2 mb - 0.02 in0.5 mm 0.02 in0.5 mm
12:40 AM 40.6°F4.8°C 36.7°F2.6°C 86% Calm Calm -- 29.89 in1012.2 mb - 0.02 in0.5 mm 0.03 in0.8 mm
12:45 AM 40.7°F4.8°C 37.1°F2.8°C 87% Calm Calm -- 29.90 in1012.5 mb - 0.02 in0.5 mm 0.03 in0.8 mm
12:50 AM 40.6°F4.8°C 37.0°F2.8°C 87% Calm Calm -- 29.89 in1012.2 mb - 0.02 in0.5 mm 0.03 in0.8 mm
12:55 AM 40.5°F4.7°C 36.9°F2.7°C 87% Calm Calm -- 29.89 in1012.2 mb - 0.02 in0.5 mm 0.03 in0.8 mm
01:00 AM 40.6°F4.8°C 37.0°F2.8°C 87% Calm Calm -- 29.89 in1012.2 mb - 0.02 in0.5 mm 0.04 in1.0 mm
01:10 AM 40.3°F4.6°C 36.7°F2.6°C 87% 1.2 mph SE1.9 kmh SE 3.5 mph5.6 kmh 29.89 in1012.2 mb - 0.02 in0.5 mm 0.04 in1.0 mm
01:15 AM 40.3°F4.6°C 37.0°F2.8°C 88% 1.2 mph SE1.9 kmh SE 2.3 mph3.7 kmh 29.88 in1011.9 mb - 0.02 in0.5 mm 0.04 in1.0 mm
01:20 AM 40.2°F4.6°C 36.6°F2.6°C 87% 1.2 mph SE1.9 kmh SE 2.3 mph3.7 kmh 29.88 in1011.9 mb - 0.02 in0.5 mm 0.04 in1.0 mm
01:25 AM 40.1°F4.5°C 36.9°F2.7°C 88% 1.2 mph SE1.9 kmh SE 3.5 mph5.6 kmh 29.88 in1011.9 mb - 0.03 in0.8 mm 0.05 in1.3 mm
01:30 AM 40.1°F4.5°C 36.8°F2.7°C 88% Calm Calm -- 29.88 in1011.9 mb - 0.02 in0.5 mm 0.05 in1.3 mm
01:35 AM 40.1°F4.5°C 36.8°F2.7°C 88% 1.2 mph SE1.9 kmh SE 1.2 mph1.9 kmh 29.88 in1011.9 mb - 0.02 in0.5 mm 0.05 in1.3 mm
01:40 AM 40.1°F4.5°C 36.8°F2.7°C 88% 1.2 mph SE1.9 kmh SE 2.3 mph3.7 kmh 29.88 in1011.9 mb - 0.02 in0.5 mm 0.05 in1.3 mm
01:45 AM 40.1°F4.5°C 36.8°F2.7°C 88% 2.3 mph SE3.7 kmh SE 3.5 mph5.6 kmh 29.87 in1011.5 mb - 0.02 in0.5 mm 0.05 in1.3 mm
01:50 AM 40.0°F4.4°C 36.7°F2.6°C 88% 2.3 mph ESE3.7 kmh ESE 3.5 mph5.6 kmh 29.87 in1011.5 mb - 0.02 in0.5 mm 0.05 in1.3 mm
01:55 AM 40.0°F4.4°C 36.7°F2.6°C 88% 1.2 mph NE1.9 kmh NE 3.5 mph5.6 kmh 29.87 in1011.5 mb - 0.02 in0.5 mm 0.05 in1.3 mm
02:00 AM 40.0°F4.4°C 36.7°F2.6°C 88% 2.3 mph NE3.7 kmh NE 4.6 mph7.4 kmh 29.87 in1011.5 mb - 0.02 in0.5 mm 0.05 in1.3 mm
02:10 AM 40.1°F4.5°C 36.5°F2.5°C 87% 2.3 mph ENE3.7 kmh ENE 3.5 mph5.6 kmh 29.86 in1011.2 mb - 0.01 in0.3 mm 0.05 in1.3 mm
02:15 AM 40.1°F4.5°C 36.8°F2.7°C 88% 2.3 mph ENE3.7 kmh ENE 3.5 mph5.6 kmh 29.86 in1011.2 mb - 0.01 in0.3 mm 0.05 in1.3 mm
02:20 AM 40.1°F4.5°C 36.8°F2.7°C 88% 2.3 mph ENE3.7 kmh ENE 3.5 mph5.6 kmh 29.86 in1011.2 mb - 0.01 in0.3 mm 0.05 in1.3 mm
02:25 AM 40.1°F4.5°C 36.8°F2.7°C 88% 1.2 mph NE1.9 kmh NE 2.3 mph3.7 kmh 29.86 in1011.2 mb - 0.00 in0.0 mm 0.05 in1.3 mm
02:30 AM 40.2°F4.6°C 36.9°F2.7°C 88% 2.3 mph ENE3.7 kmh ENE 3.5 mph5.6 kmh 29.85 in1010.8 mb - 0.00 in0.0 mm 0.05 in1.3 mm
02:35 AM 40.1°F4.5°C 36.9°F2.7°C 88% 2.3 mph NE3.7 kmh NE 3.5 mph5.6 kmh 29.85 in1010.8 mb - 0.00 in0.0 mm 0.05 in1.3 mm
02:40 AM 40.1°F4.5°C 36.9°F2.7°C 88% 2.3 mph NE3.7 kmh NE 3.5 mph5.6 kmh 29.85 in1010.8 mb - 0.00 in0.0 mm 0.05 in1.3 mm
02:45 AM 40.2°F4.6°C 36.9°F2.7°C 88% 2.3 mph NE3.7 kmh NE 3.5 mph5.6 kmh 29.85 in1010.8 mb - 0.00 in0.0 mm 0.05 in1.3 mm
02:50 AM 40.2°F4.6°C 36.9°F2.7°C 88% 2.3 mph NE3.7 kmh NE 3.5 mph5.6 kmh 29.85 in1010.8 mb - 0.00 in0.0 mm 0.05 in1.3 mm
02:55 AM 40.3°F4.6°C 37.3°F2.9°C 89% 3.5 mph ENE5.6 kmh ENE 3.5 mph5.6 kmh 29.85 in1010.8 mb - 0.00 in0.0 mm 0.05 in1.3 mm
03:00 AM 40.3°F4.6°C 37.3°F2.9°C 89% 2.3 mph NE3.7 kmh NE 3.5 mph5.6 kmh 29.85 in1010.8 mb - 0.01 in0.3 mm 0.06 in1.5 mm
03:10 AM 40.3°F4.6°C 37.3°F2.9°C 89% 2.3 mph NE3.7 kmh NE 3.5 mph5.6 kmh 29.84 in1010.5 mb - 0.01 in0.3 mm 0.06 in1.5 mm
03:15 AM 40.3°F4.6°C 37.3°F2.9°C 89% 1.2 mph NNE1.9 kmh NNE 1.2 mph1.9 kmh 29.84 in1010.5 mb - 0.01 in0.3 mm 0.06 in1.5 mm
03:20 AM 40.2°F4.6°C 37.2°F2.9°C 89% Calm Calm 1.2 mph1.9 kmh 29.84 in1010.5 mb - 0.01 in0.3 mm 0.06 in1.5 mm
03:25 AM 40.3°F4.6°C 37.3°F2.9°C 89% 2.3 mph E3.7 kmh E 3.5 mph5.6 kmh 29.84 in1010.5 mb - 0.01 in0.3 mm 0.06 in1.5 mm
03:30 AM 40.4°F4.7°C 37.4°F3.0°C 89% 4.6 mph ENE7.4 kmh ENE 8.1 mph13.0 kmh 29.83 in1010.2 mb - 0.01 in0.3 mm 0.06 in1.5 mm
03:35 AM 40.4°F4.7°C 37.4°F3.0°C 89% 1.2 mph NE1.9 kmh NE 2.3 mph3.7 kmh 29.83 in1010.2 mb - 0.01 in0.3 mm 0.06 in1.5 mm
03:40 AM 40.2°F4.6°C 37.2°F2.9°C 89% 2.3 mph NNW3.7 kmh NNW 2.3 mph3.7 kmh 29.83 in1010.2 mb - 0.01 in0.3 mm 0.06 in1.5 mm
03:45 AM 39.9°F4.4°C 36.9°F2.7°C 89% 1.2 mph NNW1.9 kmh NNW 2.3 mph3.7 kmh 29.83 in1010.2 mb - 0.01 in0.3 mm 0.06 in1.5 mm
03:50 AM 39.9°F4.4°C 36.9°F2.7°C 89% 2.3 mph ENE3.7 kmh ENE 3.5 mph5.6 kmh 29.83 in1010.2 mb - 0.01 in0.3 mm 0.06 in1.5 mm
03:55 AM 39.9°F4.4°C 37.0°F2.8°C 89% 3.5 mph NE5.6 kmh NE 4.6 mph7.4 kmh 29.82 in1009.8 mb - 0.01 in0.3 mm 0.06 in1.5 mm
04:00 AM 40.0°F4.4°C 37.1°F2.8°C 89% 1.2 mph NE1.9 kmh NE 2.3 mph3.7 kmh 29.83 in1010.2 mb - 0.00 in0.0 mm 0.06 in1.5 mm
04:10 AM 39.9°F4.4°C 37.0°F2.8°C 89% 1.2 mph NE1.9 kmh NE 2.3 mph3.7 kmh 29.82 in1009.8 mb - 0.00 in0.0 mm 0.06 in1.5 mm
04:15 AM 40.1°F4.5°C 37.1°F2.8°C 89% 1.2 mph NE1.9 kmh NE 3.5 mph5.6 kmh 29.82 in1009.8 mb - 0.00 in0.0 mm 0.06 in1.5 mm
04:20 AM 40.2°F4.6°C 37.2°F2.9°C 89% 2.3 mph NE3.7 kmh NE 3.5 mph5.6 kmh 29.82 in1009.8 mb - 0.00 in0.0 mm 0.06 in1.5 mm
04:25 AM 40.3°F4.6°C 37.3°F2.9°C 89% 2.3 mph ENE3.7 kmh ENE 3.5 mph5.6 kmh 29.82 in1009.8 mb - 0.00 in0.0 mm 0.06 in1.5 mm
04:30 AM 40.4°F4.7°C 37.4°F3.0°C 89% 1.2 mph ENE1.9 kmh ENE 2.3 mph3.7 kmh 29.82 in1009.8 mb - 0.00 in0.0 mm 0.06 in1.5 mm
04:35 AM 40.4°F4.7°C 37.5°F3.1°C 89% 1.2 mph NE1.9 kmh NE 2.3 mph3.7 kmh 29.82 in1009.8 mb - 0.00 in0.0 mm 0.06 in1.5 mm
04:40 AM 40.6°F4.8°C 37.6°F3.1°C 89% 1.2 mph NE1.9 kmh NE 2.3 mph3.7 kmh 29.82 in1009.8 mb - 0.00 in0.0 mm 0.06 in1.5 mm
04:45 AM 40.7°F4.8°C 37.7°F3.2°C 89% 1.2 mph NE1.9 kmh NE 2.3 mph3.7 kmh 29.82 in1009.8 mb - 0.00 in0.0 mm 0.06 in1.5 mm
04:50 AM 40.8°F4.9°C 37.8°F3.2°C 89% 1.2 mph NE1.9 kmh NE 1.2 mph1.9 kmh 29.81 in1009.5 mb - 0.00 in0.0 mm 0.06 in1.5 mm
04:55 AM 40.8°F4.9°C 37.8°F3.2°C 89% 1.2 mph NE1.9 kmh NE 1.2 mph1.9 kmh 29.81 in1009.5 mb - 0.00 in0.0 mm 0.06 in1.5 mm
05:00 AM 40.8°F4.9°C 38.0°F3.3°C 90% Calm Calm 1.2 mph1.9 kmh 29.81 in1009.5 mb - 0.00 in0.0 mm 0.06 in1.5 mm
05:10 AM 40.9°F4.9°C 38.2°F3.4°C 90% 1.2 mph NE1.9 kmh NE 2.3 mph3.7 kmh 29.81 in1009.5 mb - 0.00 in0.0 mm 0.06 in1.5 mm
05:15 AM 40.8°F4.9°C 38.1°F3.4°C 90% Calm Calm 2.3 mph3.7 kmh 29.81 in1009.5 mb - 0.00 in0.0 mm 0.06 in1.5 mm
05:20 AM 40.9°F4.9°C 38.1°F3.4°C 90% 1.2 mph NW1.9 kmh NW 2.3 mph3.7 kmh 29.81 in1009.5 mb - 0.00 in0.0 mm 0.06 in1.5 mm
05:25 AM 40.8°F4.9°C 38.1°F3.4°C 90% 1.2 mph WSW1.9 kmh WSW 1.2 mph1.9 kmh 29.82 in1009.8 mb - 0.02 in0.5 mm 0.07 in1.8 mm
05:30 AM 40.8°F4.9°C 38.1°F3.4°C 90% 1.2 mph NNW1.9 kmh NNW 2.3 mph3.7 kmh 29.82 in1009.8 mb - 0.04 in1.0 mm 0.09 in2.3 mm
05:35 AM 40.9°F4.9°C 38.2°F3.4°C 90% 2.3 mph E3.7 kmh E 3.5 mph5.6 kmh 29.81 in1009.5 mb - 0.06 in1.5 mm 0.11 in2.8 mm
05:40 AM 41.0°F5.0°C 38.3°F3.5°C 90% 1.2 mph SE1.9 kmh SE 1.2 mph1.9 kmh 29.81 in1009.5 mb - 0.06 in1.5 mm 0.11 in2.8 mm
05:45 AM 41.1°F5.1°C 38.1°F3.4°C 89% 1.2 mph NE1.9 kmh NE 1.2 mph1.9 kmh 29.80 in1009.1 mb - 0.06 in1.5 mm 0.11 in2.8 mm
05:50 AM 41.1°F5.1°C 38.4°F3.6°C 90% 1.2 mph NE1.9 kmh NE 1.2 mph1.9 kmh 29.80 in1009.1 mb - 0.06 in1.5 mm 0.11 in2.8 mm
05:55 AM 41.2°F5.1°C 38.5°F3.6°C 90% 1.2 mph NNE1.9 kmh NNE 2.3 mph3.7 kmh 29.80 in1009.1 mb - 0.06 in1.5 mm 0.11 in2.8 mm
06:00 AM 41.3°F5.2°C 38.6°F3.7°C 90% 1.2 mph NE1.9 kmh NE 3.5 mph5.6 kmh 29.80 in1009.1 mb - 0.06 in1.5 mm 0.11 in2.8 mm
06:10 AM 41.4°F5.2°C 38.7°F3.7°C 90% 1.2 mph NE1.9 kmh NE 2.3 mph3.7 kmh 29.80 in1009.1 mb - 0.06 in1.5 mm 0.11 in2.8 mm
06:15 AM 41.5°F5.3°C 38.8°F3.8°C 90% 1.2 mph NE1.9 kmh NE 1.2 mph1.9 kmh 29.80 in1009.1 mb - 0.06 in1.5 mm 0.11 in2.8 mm
06:20 AM 41.6°F5.3°C 38.9°F3.8°C 90% 1.2 mph NE1.9 kmh NE 1.2 mph1.9 kmh 29.80 in1009.1 mb - 0.06 in1.5 mm 0.11 in2.8 mm
06:25 AM 41.8°F5.4°C 39.1°F3.9°C 90% 1.2 mph NE1.9 kmh NE 1.2 mph1.9 kmh 29.80 in1009.1 mb - 0.05 in1.3 mm 0.11 in2.8 mm
06:30 AM 41.9°F5.5°C 39.2°F4.0°C 90% 1.2 mph NE1.9 kmh NE 2.3 mph3.7 kmh 29.80 in1009.1 mb - 0.02 in0.5 mm 0.11 in2.8 mm
06:35 AM 42.0°F5.6°C 39.3°F4.1°C 90% 1.2 mph NE1.9 kmh NE 2.3 mph3.7 kmh 29.79 in1008.8 mb - 0.00 in0.0 mm 0.11 in2.8 mm
06:40 AM 42.2°F5.7°C 39.5°F4.2°C 90% 2.3 mph NE3.7 kmh NE 3.5 mph5.6 kmh 29.79 in1008.8 mb - 0.00 in0.0 mm 0.11 in2.8 mm
06:45 AM 42.4°F5.8°C 39.6°F4.2°C 90% 1.2 mph NE1.9 kmh NE 2.3 mph3.7 kmh 29.79 in1008.8 mb - 0.00 in0.0 mm 0.11 in2.8 mm
06:50 AM 42.8°F6.0°C 40.1°F4.5°C 90% 1.2 mph NE1.9 kmh NE 3.5 mph5.6 kmh 29.79 in1008.8 mb - 0.00 in0.0 mm 0.11 in2.8 mm
06:55 AM 42.8°F6.0°C 39.8°F4.3°C 89% 1.2 mph NE1.9 kmh NE 2.3 mph3.7 kmh 29.79 in1008.8 mb - 0.00 in0.0 mm 0.11 in2.8 mm
07:00 AM 42.9°F6.1°C 39.9°F4.4°C 89% 1.2 mph NE1.9 kmh NE 1.2 mph1.9 kmh 29.79 in1008.8 mb - 0.00 in0.0 mm 0.11 in2.8 mm
07:10 AM 43.0°F6.1°C 39.7°F4.3°C 88% 1.2 mph ENE1.9 kmh ENE 2.3 mph3.7 kmh 29.79 in1008.8 mb - 0.00 in0.0 mm 0.11 in2.8 mm
07:15 AM 43.2°F6.2°C 39.9°F4.4°C 88% 1.2 mph NE1.9 kmh NE 2.3 mph3.7 kmh 29.78 in1008.5 mb - 0.00 in0.0 mm 0.11 in2.8 mm
07:20 AM 43.4°F6.3°C 40.1°F4.5°C 88% 1.2 mph NE1.9 kmh NE 2.3 mph3.7 kmh 29.79 in1008.8 mb - 0.00 in0.0 mm 0.11 in2.8 mm
07:25 AM 43.5°F6.4°C 39.9°F4.4°C 87% 2.3 mph NE3.7 kmh NE 3.5 mph5.6 kmh 29.79 in1008.8 mb - 0.00 in0.0 mm 0.11 in2.8 mm
07:30 AM 43.7°F6.5°C 39.8°F4.3°C 86% 2.3 mph ENE3.7 kmh ENE 3.5 mph5.6 kmh 29.78 in1008.5 mb - 0.00 in0.0 mm 0.11 in2.8 mm
07:35 AM 44.4°F6.9°C 40.7°F4.8°C 87% 2.3 mph E3.7 kmh E 3.5 mph5.6 kmh 29.78 in1008.5 mb - 0.00 in0.0 mm 0.11 in2.8 mm
07:40 AM 44.3°F6.8°C 40.7°F4.8°C 87% 3.5 mph E5.6 kmh E 3.5 mph5.6 kmh 29.78 in1008.5 mb - 0.00 in0.0 mm 0.11 in2.8 mm
07:45 AM 44.8°F7.1°C 40.9°F4.9°C 86% 1.2 mph NE1.9 kmh NE 3.5 mph5.6 kmh 29.78 in1008.5 mb - 0.00 in0.0 mm 0.11 in2.8 mm
07:50 AM 45.1°F7.3°C 41.2°F5.1°C 86% 1.2 mph NE1.9 kmh NE 3.5 mph5.6 kmh 29.78 in1008.5 mb - 0.00 in0.0 mm 0.11 in2.8 mm
07:55 AM 45.2°F7.3°C 40.6°F4.8°C 84% 2.3 mph ESE3.7 kmh ESE 3.5 mph5.6 kmh 29.78 in1008.5 mb - 0.00 in0.0 mm 0.11 in2.8 mm
08:00 AM 45.7°F7.6°C 40.5°F4.7°C 82% 2.3 mph ESE3.7 kmh ESE 3.5 mph5.6 kmh 29.78 in1008.5 mb - 0.00 in0.0 mm 0.11 in2.8 mm
08:10 AM 46.2°F7.9°C 40.3°F4.6°C 80% 2.3 mph SE3.7 kmh SE 2.3 mph3.7 kmh 29.77 in1008.1 mb - 0.00 in0.0 mm 0.11 in2.8 mm
08:15 AM 46.4°F8.0°C 40.9°F4.9°C 81% 1.2 mph SE1.9 kmh SE 3.5 mph5.6 kmh 29.77 in1008.1 mb - 0.00 in0.0 mm 0.11 in2.8 mm
08:20 AM 46.6°F8.1°C 40.7°F4.8°C 80% 2.3 mph SE3.7 kmh SE 3.5 mph5.6 kmh 29.77 in1008.1 mb - 0.00 in0.0 mm 0.11 in2.8 mm
08:25 AM 46.9°F8.3°C 40.7°F4.8°C 79% 2.3 mph SE3.7 kmh SE 4.6 mph7.4 kmh 29.77 in1008.1 mb - 0.00 in0.0 mm 0.11 in2.8 mm
08:30 AM 46.9°F8.3°C 40.4°F4.7°C 78% 2.3 mph SE3.7 kmh SE 3.5 mph5.6 kmh 29.77 in1008.1 mb - 0.00 in0.0 mm 0.11 in2.8 mm
08:35 AM 47.3°F8.5°C 41.1°F5.1°C 79% 2.3 mph SE3.7 kmh SE 3.5 mph5.6 kmh 29.77 in1008.1 mb - 0.00 in0.0 mm 0.11 in2.8 mm
08:40 AM 47.7°F8.7°C 41.5°F5.3°C 79% 1.2 mph SE1.9 kmh SE 4.6 mph7.4 kmh 29.77 in1008.1 mb - 0.00 in0.0 mm 0.11 in2.8 mm
08:45 AM 47.7°F8.7°C 41.5°F5.3°C 79% 1.2 mph SE1.9 kmh SE 3.5 mph5.6 kmh 29.77 in1008.1 mb - 0.00 in0.0 mm 0.11 in2.8 mm
08:50 AM 48.4°F9.1°C 42.5°F5.8°C 80% 1.2 mph SE1.9 kmh SE 2.3 mph3.7 kmh 29.77 in1008.1 mb - 0.00 in0.0 mm 0.11 in2.8 mm
08:55 AM 48.6°F9.2°C 42.0°F5.6°C 78% 2.3 mph SE3.7 kmh SE 3.5 mph5.6 kmh 29.77 in1008.1 mb - 0.00 in0.0 mm 0.11 in2.8 mm
09:00 AM 48.8°F9.3°C 42.6°F5.9°C 79% 3.5 mph SE5.6 kmh SE 4.6 mph7.4 kmh 29.76 in1007.8 mb - 0.00 in0.0 mm 0.11 in2.8 mm
09:10 AM 49.3°F9.6°C 42.7°F5.9°C 78% 3.5 mph ESE5.6 kmh ESE 3.5 mph5.6 kmh 29.76 in1007.8 mb - 0.00 in0.0 mm 0.11 in2.8 mm
09:15 AM 49.7°F9.8°C 42.4°F5.8°C 76% 3.5 mph SE5.6 kmh SE 3.5 mph5.6 kmh 29.76 in1007.8 mb - 0.00 in0.0 mm 0.11 in2.8 mm
09:20 AM 49.8°F9.9°C 42.2°F5.7°C 75% 2.3 mph SSE3.7 kmh SSE 3.5 mph5.6 kmh 29.76 in1007.8 mb - 0.00 in0.0 mm 0.11 in2.8 mm
09:25 AM 49.5°F9.7°C 42.3°F5.7°C 76% 2.3 mph SE3.7 kmh SE 3.5 mph5.6 kmh 29.75 in1007.5 mb - 0.00 in0.0 mm 0.11 in2.8 mm
09:30 AM 49.9°F9.9°C 42.3°F5.7°C 75% 3.5 mph SE5.6 kmh SE 5.8 mph9.3 kmh 29.75 in1007.5 mb - 0.00 in0.0 mm 0.11 in2.8 mm
09:35 AM 50.0°F10.0°C 42.0°F5.6°C 74% 3.5 mph SE5.6 kmh SE 3.5 mph5.6 kmh 29.75 in1007.5 mb - 0.00 in0.0 mm 0.11 in2.8 mm
09:40 AM 50.6°F10.3°C 41.5°F5.3°C 71% 3.5 mph E5.6 kmh E 5.8 mph9.3 kmh 29.75 in1007.5 mb - 0.00 in0.0 mm 0.11 in2.8 mm
09:45 AM 50.5°F10.3°C 42.2°F5.7°C 73% 3.5 mph SE5.6 kmh SE 6.9 mph11.1 kmh 29.75 in1007.5 mb - 0.00 in0.0 mm 0.11 in2.8 mm
09:50 AM 50.7°F10.4°C 42.3°F5.7°C 73% 4.6 mph ESE7.4 kmh ESE 8.1 mph13.0 kmh 29.75 in1007.5 mb - 0.00 in0.0 mm 0.11 in2.8 mm
09:55 AM 50.7°F10.4°C 42.3°F5.7°C 73% 4.6 mph SE7.4 kmh SE 6.9 mph11.1 kmh 29.75 in1007.5 mb - 0.00 in0.0 mm 0.11 in2.8 mm
10:00 AM 51.1°F10.6°C 43.1°F6.2°C 74% 2.3 mph ESE3.7 kmh ESE 4.6 mph7.4 kmh 29.75 in1007.5 mb - 0.00 in0.0 mm 0.11 in2.8 mm
10:10 AM 51.5°F10.8°C 42.4°F5.8°C 71% 4.6 mph SE7.4 kmh SE 4.6 mph7.4 kmh 29.74 in1007.1 mb - 0.00 in0.0 mm 0.11 in2.8 mm
10:15 AM 51.9°F11.1°C 42.0°F5.6°C 69% 3.5 mph ESE5.6 kmh ESE 5.8 mph9.3 kmh 29.74 in1007.1 mb - 0.00 in0.0 mm 0.11 in2.8 mm
10:20 AM 52.0°F11.1°C 41.4°F5.2°C 67% 4.6 mph SE7.4 kmh SE 5.8 mph9.3 kmh 29.74 in1007.1 mb - 0.00 in0.0 mm 0.11 in2.8 mm
10:25 AM 52.9°F11.6°C 42.2°F5.7°C 67% 4.6 mph E7.4 kmh E 10.4 mph16.7 kmh 29.73 in1006.8 mb - 0.00 in0.0 mm 0.11 in2.8 mm
10:30 AM 53.1°F11.7°C 42.4°F5.8°C 67% 4.6 mph SE7.4 kmh SE 8.1 mph13.0 kmh 29.73 in1006.8 mb - 0.00 in0.0 mm 0.11 in2.8 mm
10:35 AM 53.1°F11.7°C 41.3°F5.2°C 64% 4.6 mph SE7.4 kmh SE 6.9 mph11.1 kmh 29.73 in1006.8 mb - 0.00 in0.0 mm 0.11 in2.8 mm
10:40 AM 53.4°F11.9°C 41.9°F5.5°C 65% 4.6 mph SE7.4 kmh SE 8.1 mph13.0 kmh 29.73 in1006.8 mb - 0.00 in0.0 mm 0.11 in2.8 mm
10:45 AM 53.5°F11.9°C 42.0°F5.6°C 65% 3.5 mph SSE5.6 kmh SSE 8.1 mph13.0 kmh 29.73 in1006.8 mb - 0.00 in0.0 mm 0.11 in2.8 mm
10:50 AM 53.5°F11.9°C 41.2°F5.1°C 63% 3.5 mph E5.6 kmh E 6.9 mph11.1 kmh 29.73 in1006.8 mb - 0.00 in0.0 mm 0.11 in2.8 mm
10:55 AM 53.6°F12.0°C 40.9°F4.9°C 62% 6.9 mph SE11.1 kmh SE 8.1 mph13.0 kmh 29.72 in1006.4 mb - 0.00 in0.0 mm 0.11 in2.8 mm
11:00 AM 53.7°F12.1°C 41.8°F5.4°C 64% 4.6 mph SE7.4 kmh SE 10.4 mph16.7 kmh 29.72 in1006.4 mb - 0.00 in0.0 mm 0.11 in2.8 mm
11:10 AM 53.7°F12.1°C 40.6°F4.8°C 61% 6.9 mph SE11.1 kmh SE 10.4 mph16.7 kmh 29.72 in1006.4 mb - 0.00 in0.0 mm 0.11 in2.8 mm
11:15 AM 53.6°F12.0°C 40.5°F4.7°C 61% 6.9 mph ESE11.1 kmh ESE 10.4 mph16.7 kmh 29.72 in1006.4 mb - 0.00 in0.0 mm 0.11 in2.8 mm
11:20 AM 53.6°F12.0°C 40.5°F4.7°C 61% 3.5 mph ESE5.6 kmh ESE 6.9 mph11.1 kmh 29.71 in1006.1 mb - 0.00 in0.0 mm 0.11 in2.8 mm
11:25 AM 53.9°F12.2°C 39.0°F3.9°C 57% 5.8 mph E9.3 kmh E 10.4 mph16.7 kmh 29.71 in1006.1 mb - 0.00 in0.0 mm 0.11 in2.8 mm
11:30 AM 54.3°F12.4°C 39.8°F4.3°C 58% 4.6 mph SE7.4 kmh SE 9.2 mph14.8 kmh 29.71 in1006.1 mb - 0.00 in0.0 mm 0.11 in2.8 mm
11:35 AM 54.7°F12.6°C 40.3°F4.6°C 58% 4.6 mph SE7.4 kmh SE 8.1 mph13.0 kmh 29.70 in1005.8 mb - 0.00 in0.0 mm 0.11 in2.8 mm
11:40 AM 54.6°F12.6°C 39.6°F4.2°C 57% 5.8 mph E9.3 kmh E 10.4 mph16.7 kmh 29.70 in1005.8 mb - 0.00 in0.0 mm 0.11 in2.8 mm
11:45 AM 55.0°F12.8°C 40.5°F4.7°C 58% 6.9 mph SE11.1 kmh SE 10.4 mph16.7 kmh 29.70 in1005.8 mb - 0.00 in0.0 mm 0.11 in2.8 mm
11:50 AM 55.0°F12.8°C 40.0°F4.4°C 57% 8.1 mph SE13.0 kmh SE 11.5 mph18.5 kmh 29.70 in1005.8 mb - 0.00 in0.0 mm 0.11 in2.8 mm
11:55 AM 55.3°F12.9°C 41.2°F5.1°C 59% 3.5 mph E5.6 kmh E 9.2 mph14.8 kmh 29.70 in1005.8 mb - 0.00 in0.0 mm 0.11 in2.8 mm
12:00 PM 55.4°F13.0°C 40.4°F4.7°C 57% 6.9 mph SE11.1 kmh SE 13.8 mph22.2 kmh 29.70 in1005.8 mb - 0.00 in0.0 mm 0.11 in2.8 mm
12:10 PM 55.5°F13.1°C 41.0°F5.0°C 58% 5.8 mph ESE9.3 kmh ESE 8.1 mph13.0 kmh 29.69 in1005.4 mb - 0.00 in0.0 mm 0.11 in2.8 mm
12:15 PM 55.7°F13.2°C 40.7°F4.8°C 57% 6.9 mph ESE11.1 kmh ESE 10.4 mph16.7 kmh 29.69 in1005.4 mb - 0.00 in0.0 mm 0.11 in2.8 mm
12:20 PM 55.2°F12.9°C 40.2°F4.6°C 57% 6.9 mph SE11.1 kmh SE 11.5 mph18.5 kmh 29.68 in1005.1 mb - 0.00 in0.0 mm 0.11 in2.8 mm
12:25 PM 54.6°F12.6°C 39.7°F4.3°C 57% 6.9 mph SE11.1 kmh SE 10.4 mph16.7 kmh 29.68 in1005.1 mb - 0.00 in0.0 mm 0.11 in2.8 mm
12:30 PM 54.9°F12.7°C 40.4°F4.7°C 58% 8.1 mph SE13.0 kmh SE 11.5 mph18.5 kmh 29.68 in1005.1 mb - 0.00 in0.0 mm 0.11 in2.8 mm
12:35 PM 54.8°F12.7°C 39.8°F4.3°C 57% 8.1 mph SE13.0 kmh SE 11.5 mph18.5 kmh 29.68 in1005.1 mb - 0.00 in0.0 mm 0.11 in2.8 mm
12:40 PM 54.9°F12.7°C 40.0°F4.4°C 57% 8.1 mph SE13.0 kmh SE 13.8 mph22.2 kmh 29.68 in1005.1 mb - 0.00 in0.0 mm 0.11 in2.8 mm
12:45 PM 54.5°F12.5°C 40.1°F4.5°C 58% 9.2 mph SE14.8 kmh SE 11.5 mph18.5 kmh 29.68 in1005.1 mb - 0.00 in0.0 mm 0.11 in2.8 mm
12:50 PM 54.4°F12.4°C 40.0°F4.4°C 58% 8.1 mph SE13.0 kmh SE 11.5 mph18.5 kmh 29.67 in1004.7 mb - 0.00 in0.0 mm 0.11 in2.8 mm
12:55 PM 53.8°F12.1°C 39.4°F4.1°C 58% 8.1 mph SE13.0 kmh SE 11.5 mph18.5 kmh 29.67 in1004.7 mb - 0.00 in0.0 mm 0.11 in2.8 mm
01:00 PM 53.5°F11.9°C 39.9°F4.4°C 60% 9.2 mph SE14.8 kmh SE 12.7 mph20.4 kmh 29.67 in1004.7 mb - 0.00 in0.0 mm 0.11 in2.8 mm
01:10 PM 53.2°F11.8°C 39.6°F4.2°C 60% 9.2 mph SE14.8 kmh SE 13.8 mph22.2 kmh 29.67 in1004.7 mb - 0.00 in0.0 mm 0.11 in2.8 mm
01:15 PM 53.3°F11.8°C 40.6°F4.8°C 62% 8.1 mph SE13.0 kmh SE 10.4 mph16.7 kmh 29.67 in1004.7 mb - 0.00 in0.0 mm 0.11 in2.8 mm
01:20 PM 53.7°F12.1°C 39.7°F4.3°C 59% 5.8 mph ESE9.3 kmh ESE 11.5 mph18.5 kmh 29.66 in1004.4 mb - 0.00 in0.0 mm 0.11 in2.8 mm
01:25 PM 53.8°F12.1°C 39.8°F4.3°C 59% 8.1 mph E13.0 kmh E 11.5 mph18.5 kmh 29.66 in1004.4 mb - 0.00 in0.0 mm 0.11 in2.8 mm
01:30 PM 54.0°F12.2°C 39.6°F4.2°C 58% 6.9 mph SE11.1 kmh SE 8.1 mph13.0 kmh 29.66 in1004.4 mb - 0.00 in0.0 mm 0.11 in2.8 mm
01:35 PM 54.4°F12.4°C 40.4°F4.7°C 59% 9.2 mph SE14.8 kmh SE 11.5 mph18.5 kmh 29.66 in1004.4 mb - 0.00 in0.0 mm 0.11 in2.8 mm
01:40 PM 54.4°F12.4°C 40.4°F4.7°C 59% 5.8 mph SE9.3 kmh SE 9.2 mph14.8 kmh 29.65 in1004.1 mb - 0.00 in0.0 mm 0.11 in2.8 mm
01:45 PM 54.4°F12.4°C 40.4°F4.7°C 59% 5.8 mph SE9.3 kmh SE 9.2 mph14.8 kmh 29.65 in1004.1 mb - 0.00 in0.0 mm 0.11 in2.8 mm
01:50 PM 54.4°F12.4°C 39.9°F4.4°C 58% 8.1 mph SE13.0 kmh SE 12.7 mph20.4 kmh 29.65 in1004.1 mb - 0.00 in0.0 mm 0.11 in2.8 mm
01:55 PM 54.1°F12.3°C 40.1°F4.5°C 59% 9.2 mph SE14.8 kmh SE 15.0 mph24.1 kmh 29.65 in1004.1 mb - 0.00 in0.0 mm 0.11 in2.8 mm
02:00 PM 54.2°F12.3°C 40.2°F4.6°C 59% 8.1 mph ESE13.0 kmh ESE 9.2 mph14.8 kmh 29.64 in1003.7 mb - 0.00 in0.0 mm 0.11 in2.8 mm
02:10 PM 54.2°F12.3°C 40.6°F4.8°C 60% 4.6 mph SE7.4 kmh SE 10.4 mph16.7 kmh 29.64 in1003.7 mb - 0.00 in0.0 mm 0.11 in2.8 mm
02:15 PM 53.9°F12.2°C 39.9°F4.4°C 59% 8.1 mph SE13.0 kmh SE 12.7 mph20.4 kmh 29.64 in1003.7 mb - 0.00 in0.0 mm 0.11 in2.8 mm
02:20 PM 53.8°F12.1°C 40.2°F4.6°C 60% 6.9 mph E11.1 kmh E 13.8 mph22.2 kmh 29.63 in1003.4 mb - 0.00 in0.0 mm 0.11 in2.8 mm
02:25 PM 53.8°F12.1°C 39.4°F4.1°C 58% 8.1 mph ESE13.0 kmh ESE 13.8 mph22.2 kmh 29.63 in1003.4 mb - 0.00 in0.0 mm 0.11 in2.8 mm
02:30 PM 53.8°F12.1°C 39.8°F4.3°C 59% 6.9 mph ESE11.1 kmh ESE 11.5 mph18.5 kmh 29.63 in1003.4 mb - 0.00 in0.0 mm 0.11 in2.8 mm
02:35 PM 53.6°F12.0°C 40.0°F4.4°C 60% 6.9 mph SE11.1 kmh SE 11.5 mph18.5 kmh 29.63 in1003.4 mb - 0.00 in0.0 mm 0.11 in2.8 mm
02:40 PM 53.6°F12.0°C 41.3°F5.2°C 63% 4.6 mph ESE7.4 kmh ESE 8.1 mph13.0 kmh 29.63 in1003.4 mb - 0.00 in0.0 mm 0.11 in2.8 mm
02:45 PM 53.4°F11.9°C 40.3°F4.6°C 61% 8.1 mph ESE13.0 kmh ESE 11.5 mph18.5 kmh 29.62 in1003.0 mb - 0.00 in0.0 mm 0.11 in2.8 mm
02:50 PM 53.3°F11.8°C 40.2°F4.6°C 61% 6.9 mph ESE11.1 kmh ESE 12.7 mph20.4 kmh 29.61 in1002.7 mb - 0.00 in0.0 mm 0.11 in2.8 mm
02:55 PM 53.4°F11.9°C 40.7°F4.8°C 62% 5.8 mph SE9.3 kmh SE 11.5 mph18.5 kmh 29.61 in1002.7 mb - 0.00 in0.0 mm 0.11 in2.8 mm
03:00 PM 53.6°F12.0°C 40.9°F4.9°C 62% 8.1 mph ESE13.0 kmh ESE 11.5 mph18.5 kmh 29.61 in1002.7 mb - 0.00 in0.0 mm 0.11 in2.8 mm
03:10 PM 53.6°F12.0°C 40.0°F4.4°C 60% 8.1 mph SE13.0 kmh SE 11.5 mph18.5 kmh 29.60 in1002.4 mb - 0.00 in0.0 mm 0.11 in2.8 mm
03:15 PM 53.7°F12.1°C 40.1°F4.5°C 60% 8.1 mph SE13.0 kmh SE 11.5 mph18.5 kmh 29.60 in1002.4 mb - 0.00 in0.0 mm 0.11 in2.8 mm
03:20 PM 53.8°F12.1°C 41.5°F5.3°C 63% 5.8 mph SE9.3 kmh SE 9.2 mph14.8 kmh 29.60 in1002.4 mb - 0.00 in0.0 mm 0.11 in2.8 mm
03:25 PM 53.8°F12.1°C 41.1°F5.1°C 62% 5.8 mph E9.3 kmh E 12.7 mph20.4 kmh 29.59 in1002.0 mb - 0.00 in0.0 mm 0.11 in2.8 mm
03:30 PM 53.8°F12.1°C 40.2°F4.6°C 60% 5.8 mph E9.3 kmh E 10.4 mph16.7 kmh 29.59 in1002.0 mb - 0.00 in0.0 mm 0.11 in2.8 mm
03:35 PM 53.9°F12.2°C 40.4°F4.7°C 60% 5.8 mph E9.3 kmh E 11.5 mph18.5 kmh 29.59 in1002.0 mb - 0.00 in0.0 mm 0.11 in2.8 mm
03:40 PM 54.1°F12.3°C 40.5°F4.7°C 60% 5.8 mph E9.3 kmh E 11.5 mph18.5 kmh 29.58 in1001.7 mb - 0.00 in0.0 mm 0.11 in2.8 mm
03:45 PM 54.1°F12.3°C 41.4°F5.2°C 62% 5.8 mph SE9.3 kmh SE 6.9 mph11.1 kmh 29.58 in1001.7 mb - 0.00 in0.0 mm 0.11 in2.8 mm
03:50 PM 54.2°F12.3°C 41.9°F5.5°C 63% 3.5 mph E5.6 kmh E 3.5 mph5.6 kmh 29.58 in1001.7 mb - 0.00 in0.0 mm 0.11 in2.8 mm
03:55 PM 54.4°F12.4°C 41.2°F5.1°C 61% 4.6 mph ESE7.4 kmh ESE 10.4 mph16.7 kmh 29.58 in1001.7 mb - 0.00 in0.0 mm 0.11 in2.8 mm
04:00 PM 54.0°F12.2°C 40.0°F4.4°C 59% 6.9 mph E11.1 kmh E 11.5 mph18.5 kmh 29.59 in1002.0 mb - 0.00 in0.0 mm 0.11 in2.8 mm
04:10 PM 53.5°F11.9°C 39.1°F3.9°C 58% 5.8 mph ESE9.3 kmh ESE 10.4 mph16.7 kmh 29.59 in1002.0 mb - 0.00 in0.0 mm 0.11 in2.8 mm
04:15 PM 53.4°F11.9°C 39.0°F3.9°C 58% 5.8 mph ESE9.3 kmh ESE 6.9 mph11.1 kmh 29.58 in1001.7 mb - 0.00 in0.0 mm 0.11 in2.8 mm
04:20 PM 53.4°F11.9°C 39.4°F4.1°C 59% 4.6 mph ESE7.4 kmh ESE 6.9 mph11.1 kmh 29.58 in1001.7 mb - 0.00 in0.0 mm 0.11 in2.8 mm
04:25 PM 53.4°F11.9°C 39.4°F4.1°C 59% 5.8 mph E9.3 kmh E 10.4 mph16.7 kmh 29.58 in1001.7 mb - 0.00 in0.0 mm 0.11 in2.8 mm
04:30 PM 53.5°F11.9°C 38.2°F3.4°C 56% 9.2 mph SE14.8 kmh SE 15.0 mph24.1 kmh 29.58 in1001.7 mb - 0.00 in0.0 mm 0.11 in2.8 mm
04:35 PM 53.6°F12.0°C 39.1°F3.9°C 58% 4.6 mph ESE7.4 kmh ESE 9.2 mph14.8 kmh 29.57 in1001.4 mb - 0.00 in0.0 mm 0.11 in2.8 mm
04:40 PM 53.6°F12.0°C 39.2°F4.0°C 58% 4.6 mph SE7.4 kmh SE 9.2 mph14.8 kmh 29.57 in1001.4 mb - 0.00 in0.0 mm 0.11 in2.8 mm
04:45 PM 53.6°F12.0°C 38.7°F3.7°C 57% 6.9 mph ESE11.1 kmh ESE 10.4 mph16.7 kmh 29.56 in1001.0 mb - 0.00 in0.0 mm 0.11 in2.8 mm
04:50 PM 53.5°F11.9°C 39.1°F3.9°C 58% 6.9 mph SE11.1 kmh SE 8.1 mph13.0 kmh 29.56 in1001.0 mb - 0.00 in0.0 mm 0.11 in2.8 mm
04:55 PM 53.3°F11.8°C 39.3°F4.1°C 59% 6.9 mph SE11.1 kmh SE 8.1 mph13.0 kmh 29.56 in1001.0 mb - 0.00 in0.0 mm 0.11 in2.8 mm
05:00 PM 52.8°F11.6°C 39.7°F4.3°C 61% 4.6 mph E7.4 kmh E 9.2 mph14.8 kmh 29.56 in1001.0 mb - 0.00 in0.0 mm 0.11 in2.8 mm
05:10 PM 52.3°F11.3°C 39.7°F4.3°C 62% 6.9 mph E11.1 kmh E 11.5 mph18.5 kmh 29.55 in1000.7 mb - 0.00 in0.0 mm 0.11 in2.8 mm
05:15 PM 52.0°F11.1°C 40.2°F4.6°C 64% 4.6 mph ESE7.4 kmh ESE 4.6 mph7.4 kmh 29.55 in1000.7 mb - 0.00 in0.0 mm 0.11 in2.8 mm
05:20 PM 51.7°F10.9°C 40.3°F4.6°C 65% 5.8 mph ESE9.3 kmh ESE 9.2 mph14.8 kmh 29.54 in1000.3 mb - 0.00 in0.0 mm 0.11 in2.8 mm
05:25 PM 51.5°F10.8°C 40.1°F4.5°C 65% 9.2 mph E14.8 kmh E 10.4 mph16.7 kmh 29.54 in1000.3 mb - 0.00 in0.0 mm 0.11 in2.8 mm
05:30 PM 51.2°F10.7°C 41.0°F5.0°C 68% 4.6 mph ESE7.4 kmh ESE 9.2 mph14.8 kmh 29.55 in1000.7 mb - 0.00 in0.0 mm 0.11 in2.8 mm
05:35 PM 51.1°F10.6°C 40.9°F4.9°C 68% 5.8 mph ESE9.3 kmh ESE 12.7 mph20.4 kmh 29.54 in1000.3 mb - 0.00 in0.0 mm 0.11 in2.8 mm
05:40 PM 51.0°F10.6°C 40.8°F4.9°C 68% 6.9 mph ESE11.1 kmh ESE 9.2 mph14.8 kmh 29.54 in1000.3 mb - 0.00 in0.0 mm 0.11 in2.8 mm
05:45 PM 50.9°F10.5°C 41.1°F5.1°C 69% 6.9 mph ESE11.1 kmh ESE 13.8 mph22.2 kmh 29.54 in1000.3 mb - 0.00 in0.0 mm 0.11 in2.8 mm
05:50 PM 50.9°F10.5°C 41.1°F5.1°C 69% 6.9 mph ESE11.1 kmh ESE 10.4 mph16.7 kmh 29.54 in1000.3 mb - 0.00 in0.0 mm 0.11 in2.8 mm
05:55 PM 50.8°F10.4°C 41.4°F5.2°C 70% 5.8 mph ESE9.3 kmh ESE 11.5 mph18.5 kmh 29.53 in1000.0 mb - 0.00 in0.0 mm 0.11 in2.8 mm
06:00 PM 50.7°F10.4°C 41.6°F5.3°C 71% 6.9 mph E11.1 kmh E 10.4 mph16.7 kmh 29.53 in1000.0 mb - 0.00 in0.0 mm 0.11 in2.8 mm
06:10 PM 50.5°F10.3°C 41.8°F5.4°C 72% 4.6 mph E7.4 kmh E 6.9 mph11.1 kmh 29.53 in1000.0 mb - 0.00 in0.0 mm 0.11 in2.8 mm
06:15 PM 50.4°F10.2°C 41.7°F5.4°C 72% 3.5 mph E5.6 kmh E 6.9 mph11.1 kmh 29.52 in999.7 mb - 0.00 in0.0 mm 0.11 in2.8 mm
06:20 PM 50.3°F10.2°C 42.0°F5.6°C 73% 4.6 mph E7.4 kmh E 6.9 mph11.1 kmh 29.52 in999.7 mb - 0.00 in0.0 mm 0.11 in2.8 mm
06:25 PM 50.3°F10.2°C 42.3°F5.7°C 74% 4.6 mph E7.4 kmh E 6.9 mph11.1 kmh 29.52 in999.7 mb - 0.00 in0.0 mm 0.11 in2.8 mm
06:30 PM 50.1°F10.1°C 42.5°F5.8°C 75% 4.6 mph E7.4 kmh E 9.2 mph14.8 kmh 29.52 in999.7 mb - 0.00 in0.0 mm 0.11 in2.8 mm
06:35 PM 49.9°F9.9°C 42.9°F6.1°C 77% 3.5 mph ESE5.6 kmh ESE 8.1 mph13.0 kmh 29.52 in999.7 mb - 0.01 in0.3 mm 0.12 in3.0 mm
06:40 PM 49.6°F9.8°C 43.0°F6.1°C 78% 3.5 mph ESE5.6 kmh ESE 8.1 mph13.0 kmh 29.52 in999.7 mb - 0.01 in0.3 mm 0.12 in3.0 mm
06:45 PM 49.5°F9.7°C 43.2°F6.2°C 79% 4.6 mph E7.4 kmh E 9.2 mph14.8 kmh 29.52 in999.7 mb - 0.01 in0.3 mm 0.12 in3.0 mm
06:50 PM 49.4°F9.7°C 43.2°F6.2°C 79% 4.6 mph ESE7.4 kmh ESE 8.1 mph13.0 kmh 29.51 in999.3 mb - 0.01 in0.3 mm 0.12 in3.0 mm
06:55 PM 49.3°F9.6°C 43.4°F6.3°C 80% 3.5 mph E5.6 kmh E 9.2 mph14.8 kmh 29.51 in999.3 mb - 0.01 in0.3 mm 0.12 in3.0 mm
07:00 PM 49.3°F9.6°C 43.4°F6.3°C 80% 3.5 mph E5.6 kmh E 4.6 mph7.4 kmh 29.51 in999.3 mb - 0.01 in0.3 mm 0.12 in3.0 mm
07:10 PM 49.1°F9.5°C 43.5°F6.4°C 81% 3.5 mph E5.6 kmh E 6.9 mph11.1 kmh 29.50 in999.0 mb - 0.01 in0.3 mm 0.12 in3.0 mm
07:15 PM 49.0°F9.4°C 43.1°F6.2°C 80% 5.8 mph E9.3 kmh E 9.2 mph14.8 kmh 29.50 in999.0 mb - 0.02 in0.5 mm 0.13 in3.3 mm
07:20 PM 48.9°F9.4°C 43.0°F6.1°C 80% 4.6 mph E7.4 kmh E 8.1 mph13.0 kmh 29.50 in999.0 mb - 0.02 in0.5 mm 0.13 in3.3 mm
07:25 PM 48.9°F9.4°C 43.3°F6.3°C 81% 3.5 mph E5.6 kmh E 6.9 mph11.1 kmh 29.50 in999.0 mb - 0.02 in0.5 mm 0.13 in3.3 mm
07:30 PM 48.9°F9.4°C 43.0°F6.1°C 80% 3.5 mph ESE5.6 kmh ESE 6.9 mph11.1 kmh 29.50 in999.0 mb - 0.02 in0.5 mm 0.13 in3.3 mm
07:35 PM 48.8°F9.3°C 43.3°F6.3°C 81% 4.6 mph E7.4 kmh E 10.4 mph16.7 kmh 29.49 in998.6 mb - 0.02 in0.5 mm 0.13 in3.3 mm
07:40 PM 48.8°F9.3°C 43.2°F6.2°C 81% 2.3 mph E3.7 kmh E 8.1 mph13.0 kmh 29.49 in998.6 mb - 0.01 in0.3 mm 0.13 in3.3 mm
07:45 PM 48.8°F9.3°C 43.2°F6.2°C 81% 3.5 mph E5.6 kmh E 3.5 mph5.6 kmh 29.49 in998.6 mb - 0.01 in0.3 mm 0.13 in3.3 mm
07:50 PM 48.8°F9.3°C 43.2°F6.2°C 81% 4.6 mph E7.4 kmh E 6.9 mph11.1 kmh 29.48 in998.3 mb - 0.01 in0.3 mm 0.13 in3.3 mm
07:55 PM 48.8°F9.3°C 43.2°F6.2°C 81% 4.6 mph E7.4 kmh E 6.9 mph11.1 kmh 29.48 in998.3 mb - 0.01 in0.3 mm 0.13 in3.3 mm
08:00 PM 48.8°F9.3°C 43.2°F6.2°C 81% 2.3 mph E3.7 kmh E 3.5 mph5.6 kmh 29.48 in998.3 mb - 0.01 in0.3 mm 0.13 in3.3 mm
08:10 PM 48.8°F9.3°C 43.3°F6.3°C 81% 5.8 mph E9.3 kmh E 8.1 mph13.0 kmh 29.48 in998.3 mb - 0.01 in0.3 mm 0.13 in3.3 mm
08:15 PM 48.9°F9.4°C 43.6°F6.4°C 82% 4.6 mph E7.4 kmh E 8.1 mph13.0 kmh 29.47 in998.0 mb - 0.00 in0.0 mm 0.13 in3.3 mm
08:20 PM 48.9°F9.4°C 43.6°F6.4°C 82% 4.6 mph E7.4 kmh E 8.1 mph13.0 kmh 29.47 in998.0 mb - 0.00 in0.0 mm 0.13 in3.3 mm
08:25 PM 48.9°F9.4°C 43.3°F6.3°C 81% 5.8 mph E9.3 kmh E 11.5 mph18.5 kmh 29.46 in997.6 mb - 0.00 in0.0 mm 0.13 in3.3 mm
08:30 PM 49.2°F9.6°C 43.6°F6.4°C 81% 5.8 mph E9.3 kmh E 8.1 mph13.0 kmh 29.46 in997.6 mb - 0.00 in0.0 mm 0.13 in3.3 mm
08:35 PM 49.3°F9.6°C 43.4°F6.3°C 80% 5.8 mph ESE9.3 kmh ESE 9.2 mph14.8 kmh 29.46 in997.6 mb - 0.00 in0.0 mm 0.13 in3.3 mm
08:40 PM 49.5°F9.7°C 43.6°F6.4°C 80% 6.9 mph E11.1 kmh E 9.2 mph14.8 kmh 29.46 in997.6 mb - 0.00 in0.0 mm 0.13 in3.3 mm
08:45 PM 49.8°F9.9°C 43.8°F6.6°C 80% 4.6 mph ESE7.4 kmh ESE 8.1 mph13.0 kmh 29.45 in997.3 mb - 0.00 in0.0 mm 0.13 in3.3 mm
08:50 PM 50.1°F10.1°C 44.1°F6.7°C 80% 5.8 mph SE9.3 kmh SE 9.2 mph14.8 kmh 29.45 in997.3 mb - 0.00 in0.0 mm 0.13 in3.3 mm
08:55 PM 50.4°F10.2°C 44.2°F6.8°C 79% 8.1 mph ESE13.0 kmh ESE 11.5 mph18.5 kmh 29.45 in997.3 mb - 0.00 in0.0 mm 0.13 in3.3 mm
09:00 PM 50.7°F10.4°C 44.4°F6.9°C 79% 6.9 mph ESE11.1 kmh ESE 9.2 mph14.8 kmh 29.45 in997.3 mb - 0.00 in0.0 mm 0.13 in3.3 mm
09:10 PM 50.8°F10.4°C 44.5°F6.9°C 79% 5.8 mph ESE9.3 kmh ESE 9.2 mph14.8 kmh 29.45 in997.3 mb - 0.00 in0.0 mm 0.13 in3.3 mm
09:15 PM 50.7°F10.4°C 44.4°F6.9°C 79% 5.8 mph SE9.3 kmh SE 11.5 mph18.5 kmh 29.45 in997.3 mb - 0.00 in0.0 mm 0.13 in3.3 mm
09:20 PM 50.7°F10.4°C 44.4°F6.9°C 79% 6.9 mph SE11.1 kmh SE 11.5 mph18.5 kmh 29.45 in997.3 mb - 0.00 in0.0 mm 0.13 in3.3 mm
09:25 PM 50.8°F10.4°C 44.5°F6.9°C 79% 6.9 mph SE11.1 kmh SE 12.7 mph20.4 kmh 29.45 in997.3 mb - 0.00 in0.0 mm 0.13 in3.3 mm
09:30 PM 50.8°F10.4°C 44.8°F7.1°C 80% 6.9 mph SE11.1 kmh SE 10.4 mph16.7 kmh 29.44 in997.0 mb - 0.00 in0.0 mm 0.13 in3.3 mm
09:35 PM 50.8°F10.4°C 44.8°F7.1°C 80% 6.9 mph SE11.1 kmh SE 9.2 mph14.8 kmh 29.44 in997.0 mb - 0.00 in0.0 mm 0.13 in3.3 mm
09:40 PM 50.7°F10.4°C 45.1°F7.3°C 81% 6.9 mph SE11.1 kmh SE 9.2 mph14.8 kmh 29.44 in997.0 mb - 0.00 in0.0 mm 0.13 in3.3 mm
09:45 PM 50.6°F10.3°C 45.0°F7.2°C 81% 8.1 mph SE13.0 kmh SE 9.2 mph14.8 kmh 29.44 in997.0 mb - 0.00 in0.0 mm 0.13 in3.3 mm
09:50 PM 50.5°F10.3°C 45.2°F7.3°C 82% 6.9 mph SE11.1 kmh SE 11.5 mph18.5 kmh 29.44 in997.0 mb - 0.00 in0.0 mm 0.13 in3.3 mm
09:55 PM 50.3°F10.2°C 45.4°F7.4°C 83% 5.8 mph SE9.3 kmh SE 9.2 mph14.8 kmh 29.43 in996.6 mb - 0.00 in0.0 mm 0.13 in3.3 mm
10:00 PM 50.1°F10.1°C 45.4°F7.4°C 84% 5.8 mph SE9.3 kmh SE 10.4 mph16.7 kmh 29.43 in996.6 mb - 0.01 in0.3 mm 0.13 in3.3 mm
10:10 PM 49.8°F9.9°C 45.5°F7.5°C 85% 6.9 mph SE11.1 kmh SE 10.4 mph16.7 kmh 29.43 in996.6 mb - 0.02 in0.5 mm 0.14 in3.6 mm
10:15 PM 49.7°F9.8°C 45.4°F7.4°C 85% 5.8 mph SE9.3 kmh SE 10.4 mph16.7 kmh 29.43 in996.6 mb - 0.02 in0.5 mm 0.14 in3.6 mm
10:20 PM 49.7°F9.8°C 45.4°F7.4°C 85% 5.8 mph SE9.3 kmh SE 9.2 mph14.8 kmh 29.43 in996.6 mb - 0.02 in0.5 mm 0.15 in3.8 mm
10:25 PM 49.6°F9.8°C 45.6°F7.6°C 86% 5.8 mph SE9.3 kmh SE 10.4 mph16.7 kmh 29.43 in996.6 mb - 0.03 in0.8 mm 0.16 in4.1 mm
10:30 PM 49.5°F9.7°C 45.5°F7.5°C 86% 4.6 mph SE7.4 kmh SE 8.1 mph13.0 kmh 29.43 in996.6 mb - 0.03 in0.8 mm 0.16 in4.1 mm
10:35 PM 49.5°F9.7°C 45.5°F7.5°C 86% 5.8 mph SE9.3 kmh SE 9.2 mph14.8 kmh 29.42 in996.3 mb - 0.03 in0.8 mm 0.16 in4.1 mm
10:40 PM 49.4°F9.7°C 45.7°F7.6°C 87% 4.6 mph SE7.4 kmh SE 9.2 mph14.8 kmh 29.42 in996.3 mb - 0.04 in1.0 mm 0.17 in4.3 mm
10:45 PM 49.3°F9.6°C 45.6°F7.6°C 87% 4.6 mph SE7.4 kmh SE 5.8 mph9.3 kmh 29.42 in996.3 mb - 0.05 in1.3 mm 0.17 in4.3 mm
10:50 PM 49.3°F9.6°C 45.9°F7.7°C 88% 4.6 mph SE7.4 kmh SE 8.1 mph13.0 kmh 29.42 in996.3 mb - 0.05 in1.3 mm 0.17 in4.3 mm
10:55 PM 49.2°F9.6°C 45.8°F7.7°C 88% 5.8 mph SE9.3 kmh SE 6.9 mph11.1 kmh 29.41 in995.9 mb - 0.06 in1.5 mm 0.18 in4.6 mm
11:00 PM 49.2°F9.6°C 45.8°F7.7°C 88% 4.6 mph SE7.4 kmh SE 10.4 mph16.7 kmh 29.41 in995.9 mb - 0.06 in1.5 mm 1.93 in49.0 mm
11:10 PM 49.1°F9.5°C 46.0°F7.8°C 89% 5.8 mph SE9.3 kmh SE 8.1 mph13.0 kmh 29.41 in995.9 mb - 0.06 in1.5 mm 0.01 in0.3 mm
11:15 PM 49.1°F9.5°C 46.0°F7.8°C 89% 4.6 mph SE7.4 kmh SE 9.2 mph14.8 kmh 29.41 in995.9 mb - 0.06 in1.5 mm 0.02 in0.5 mm
11:20 PM 49.1°F9.5°C 46.0°F7.8°C 89% 3.5 mph SE5.6 kmh SE 8.1 mph13.0 kmh 29.41 in995.9 mb - 0.06 in1.5 mm 0.02 in0.5 mm
11:25 PM 49.1°F9.5°C 46.0°F7.8°C 89% 5.8 mph SE9.3 kmh SE 9.2 mph14.8 kmh 29.41 in995.9 mb - 0.06 in1.5 mm 0.02 in0.5 mm
11:30 PM 49.0°F9.4°C 45.9°F7.7°C 89% 5.8 mph SE9.3 kmh SE 9.2 mph14.8 kmh 29.40 in995.6 mb - 0.06 in1.5 mm 0.03 in0.8 mm
11:35 PM 49.1°F9.5°C 46.0°F7.8°C 89% 5.8 mph SE9.3 kmh SE 6.9 mph11.1 kmh 29.40 in995.6 mb - 0.07 in1.8 mm 0.04 in1.0 mm
11:40 PM 49.0°F9.4°C 46.2°F7.9°C 90% 4.6 mph SE7.4 kmh SE 6.9 mph11.1 kmh 29.40 in995.6 mb - 0.06 in1.5 mm 0.04 in1.0 mm
11:45 PM 49.0°F9.4°C 46.2°F7.9°C 90% 3.5 mph SE5.6 kmh SE 6.9 mph11.1 kmh 29.40 in995.6 mb - 0.06 in1.5 mm 0.05 in1.3 mm
11:50 PM 49.0°F9.4°C 46.2°F7.9°C 90% 4.6 mph SE7.4 kmh SE 6.9 mph11.1 kmh 29.40 in995.6 mb - 0.06 in1.5 mm 0.05 in1.3 mm
11:55 PM 48.9°F9.4°C 46.1°F7.8°C 90% 3.5 mph SE5.6 kmh SE 8.1 mph13.0 kmh 29.39 in995.3 mb - 0.06 in1.5 mm 0.06 in1.5 mm